createdAt,value
2022-11-13T00:01:16.459Z,7.4
2022-11-13T00:04:16.461Z,7.4
2022-11-13T00:07:16.501Z,7.3
2022-11-13T00:10:16.452Z,7.3
2022-11-13T00:13:16.453Z,7.3
2022-11-13T00:16:16.446Z,7.3
2022-11-13T00:19:16.444Z,7.3
2022-11-13T00:22:16.451Z,7.3
2022-11-13T00:25:16.447Z,7.2
2022-11-13T00:28:16.439Z,7.2
2022-11-13T00:31:16.445Z,7.2
2022-11-13T00:34:46.271Z,7.2
2022-11-13T00:37:16.441Z,7.2
2022-11-13T00:40:16.436Z,7.2
2022-11-13T00:43:16.440Z,7.2
2022-11-13T00:46:16.431Z,7.2
2022-11-13T00:49:16.428Z,7.2
2022-11-13T00:52:16.435Z,7.2
2022-11-13T00:55:16.434Z,7.2
2022-11-13T00:58:16.427Z,7.2
2022-11-13T01:01:16.500Z,7.1
2022-11-13T01:04:16.428Z,7.1
2022-11-13T01:10:16.424Z,7.1
2022-11-13T01:13:16.421Z,7.1
2022-11-13T01:16:16.423Z,7.1
2022-11-13T01:19:16.421Z,7.1
2022-11-13T01:22:16.421Z,7.1
2022-11-13T01:25:16.423Z,7.1
2022-11-13T01:28:16.424Z,7
2022-11-13T01:31:16.422Z,7
2022-11-13T01:34:16.415Z,7
2022-11-13T01:37:16.420Z,7
2022-11-13T01:40:16.416Z,7
2022-11-13T01:43:16.414Z,7
2022-11-13T01:46:16.416Z,7
2022-11-13T01:49:16.428Z,7
2022-11-13T01:52:16.417Z,6.9
2022-11-13T01:55:16.414Z,6.9
2022-11-13T01:58:16.411Z,6.9
2022-11-13T02:01:16.458Z,6.9
2022-11-13T02:04:16.410Z,6.9
2022-11-13T02:07:16.452Z,6.9
2022-11-13T02:10:16.404Z,6.9
2022-11-13T02:13:16.401Z,6.9
2022-11-13T02:16:16.402Z,6.9
2022-11-13T02:19:16.402Z,6.8
2022-11-13T02:22:16.402Z,6.8
2022-11-13T02:25:16.402Z,6.8
2022-11-13T02:28:16.400Z,6.8
2022-11-13T02:31:16.400Z,6.8
2022-11-13T02:34:16.427Z,6.8
2022-11-13T02:37:16.406Z,6.8
2022-11-13T02:40:16.394Z,6.8
2022-11-13T02:43:16.400Z,6.7
2022-11-13T02:46:16.397Z,6.7
2022-11-13T02:49:16.393Z,6.7
2022-11-13T02:52:16.427Z,6.7
2022-11-13T02:55:16.396Z,6.6
2022-11-13T02:58:16.396Z,6.6
2022-11-13T03:01:16.447Z,6.6
2022-11-13T03:04:16.393Z,6.6
2022-11-13T03:07:16.467Z,6.6
2022-11-13T03:10:16.392Z,6.6
2022-11-13T03:13:16.396Z,6.6
2022-11-13T03:16:16.386Z,6.6
2022-11-13T03:19:16.394Z,6.5
2022-11-13T03:25:16.380Z,6.5
2022-11-13T03:28:16.389Z,6.5
2022-11-13T03:31:16.384Z,6.5
2022-11-13T03:34:16.382Z,6.5
2022-11-13T03:37:16.390Z,6.5
2022-11-13T03:40:16.381Z,6.5
2022-11-13T03:43:16.376Z,6.5
2022-11-13T03:46:16.381Z,6.5
2022-11-13T03:49:16.388Z,6.5
2022-11-13T03:55:16.374Z,6.5
2022-11-13T03:58:16.385Z,6.4
2022-11-13T04:01:16.455Z,6.4
2022-11-13T04:04:16.376Z,6.4
2022-11-13T04:07:16.450Z,6.4
2022-11-13T04:10:16.371Z,6.4
2022-11-13T04:13:16.369Z,6.4
2022-11-13T04:16:16.375Z,6.4
2022-11-13T04:19:16.368Z,6.4
2022-11-13T04:22:16.368Z,6.4
2022-11-13T04:25:16.371Z,6.4
2022-11-13T04:28:16.364Z,6.4
2022-11-13T04:31:16.362Z,6.4
2022-11-13T04:34:16.368Z,6.4
2022-11-13T04:37:16.359Z,6.4
2022-11-13T04:40:16.356Z,6.4
2022-11-13T04:46:16.365Z,6.3
2022-11-13T04:49:16.358Z,6.2
2022-11-13T04:52:16.357Z,6.2
2022-11-13T04:55:16.355Z,6.2
2022-11-13T04:58:16.356Z,6.2
2022-11-13T05:01:16.458Z,6.2
2022-11-13T05:04:16.355Z,6.2
2022-11-13T05:07:16.389Z,6.2
2022-11-13T05:10:16.347Z,6.2
2022-11-13T05:13:16.347Z,6.2
2022-11-13T05:16:16.351Z,6.2
2022-11-13T05:19:16.343Z,6.2
2022-11-13T05:22:16.346Z,6.2
2022-11-13T05:25:16.350Z,6.2
2022-11-13T05:28:16.350Z,6.2
2022-11-13T05:31:16.346Z,6.2
2022-11-13T05:34:16.352Z,6.2
2022-11-13T05:37:16.346Z,6.2
2022-11-13T05:40:16.341Z,6.2
2022-11-13T05:43:16.341Z,6.2
2022-11-13T05:46:16.354Z,6.2
2022-11-13T05:49:16.342Z,6.2
2022-11-13T05:55:16.339Z,6.2
2022-11-13T05:58:16.342Z,6.2
2022-11-13T06:01:16.341Z,6.2
2022-11-13T06:07:16.384Z,6.2
2022-11-13T06:10:16.330Z,6.2
2022-11-13T06:13:16.331Z,6.1
2022-11-13T06:16:16.335Z,6.1
2022-11-13T06:19:16.325Z,6.1
2022-11-13T06:22:16.328Z,6.1
2022-11-13T06:25:16.335Z,6.1
2022-11-13T06:28:16.330Z,6.1
2022-11-13T06:31:16.329Z,6.1
2022-11-13T06:34:16.320Z,6.1
2022-11-13T06:37:16.331Z,6.1
2022-11-13T06:40:16.322Z,6.1
2022-11-13T06:43:16.325Z,6.1
2022-11-13T06:46:16.319Z,6.1
2022-11-13T06:49:16.340Z,6.1
2022-11-13T06:52:16.320Z,6.1
2022-11-13T06:55:16.582Z,6.1
2022-11-13T06:58:16.526Z,6.1
2022-11-13T07:01:16.559Z,6.1
2022-11-13T07:04:16.530Z,6.1
2022-11-13T07:07:16.564Z,6.1
2022-11-13T07:10:16.520Z,6.1
2022-11-13T07:13:16.513Z,6.1
2022-11-13T07:16:17.884Z,6.1
2022-11-13T07:19:16.509Z,6.1
2022-11-13T07:22:16.520Z,6.1
2022-11-13T07:25:16.511Z,6.1
2022-11-13T07:28:16.512Z,6.1
2022-11-13T07:31:16.505Z,6.1
2022-11-13T07:34:16.512Z,6.1
2022-11-13T07:40:16.517Z,6.1
2022-11-13T07:43:16.512Z,6.1
2022-11-13T07:46:16.511Z,6.1
2022-11-13T07:49:16.502Z,6.1
2022-11-13T07:52:16.507Z,6.1
2022-11-13T07:55:16.497Z,6.1
2022-11-13T07:58:16.503Z,6.1
2022-11-13T08:01:16.585Z,6.1
2022-11-13T08:04:16.501Z,6.2
2022-11-13T08:07:16.542Z,6.2
2022-11-13T08:10:16.492Z,6.2
2022-11-13T08:13:16.492Z,6.2
2022-11-13T08:16:16.478Z,6.2
2022-11-13T08:19:16.491Z,6.2
2022-11-13T08:22:16.498Z,6.2
2022-11-13T08:25:16.493Z,6.2
2022-11-13T08:28:16.485Z,6.2
2022-11-13T08:31:16.497Z,6.3
2022-11-13T08:34:16.485Z,6.3
2022-11-13T08:37:16.487Z,6.3
2022-11-13T08:40:16.481Z,6.4
2022-11-13T08:43:16.477Z,6.4
2022-11-13T08:46:16.482Z,6.4
2022-11-13T08:49:16.473Z,6.4
2022-11-13T08:52:16.478Z,6.5
2022-11-13T08:55:16.475Z,6.5
2022-11-13T08:58:16.477Z,6.5
2022-11-13T09:01:16.472Z,6.6
2022-11-13T09:04:16.465Z,6.6
2022-11-13T09:07:16.543Z,6.7
2022-11-13T09:10:16.467Z,6.7
2022-11-13T09:13:16.461Z,6.7
2022-11-13T09:16:16.460Z,6.7
2022-11-13T09:19:16.463Z,6.7
2022-11-13T09:22:16.453Z,6.8
2022-11-13T09:25:16.457Z,6.8
2022-11-13T09:28:16.455Z,6.9
2022-11-13T09:31:16.448Z,6.9
2022-11-13T09:34:16.448Z,6.9
2022-11-13T09:37:16.447Z,7
2022-11-13T09:40:16.441Z,7
2022-11-13T09:43:16.443Z,7
2022-11-13T09:46:16.447Z,7.1
2022-11-13T09:49:16.441Z,7.1
2022-11-13T09:52:16.441Z,7.2
2022-11-13T09:55:16.438Z,7.2
2022-11-13T09:58:16.435Z,7.2
2022-11-13T10:01:16.463Z,7.3
2022-11-13T10:04:16.444Z,7.3
2022-11-13T10:07:16.467Z,7.4
2022-11-13T10:10:16.434Z,7.5
2022-11-13T10:13:16.436Z,7.5
2022-11-13T10:19:16.439Z,7.6
2022-11-13T10:22:32.623Z,7.6
2022-11-13T10:25:16.430Z,7.6
2022-11-13T10:28:43.521Z,7.7
2022-11-13T10:31:16.431Z,7.7
2022-11-13T10:34:16.427Z,7.7
2022-11-13T10:37:16.427Z,7.8
2022-11-13T10:40:16.472Z,7.8
2022-11-13T10:43:16.430Z,7.8
2022-11-13T10:46:16.428Z,7.9
2022-11-13T10:49:16.433Z,7.9
2022-11-13T10:52:16.435Z,8
2022-11-13T10:55:16.428Z,8
2022-11-13T10:58:16.428Z,8
2022-11-13T11:01:16.538Z,8.1
2022-11-13T11:04:16.429Z,8.1
2022-11-13T11:07:20.853Z,8.2
2022-11-13T11:10:16.423Z,8.2
2022-11-13T11:13:16.417Z,8.2
2022-11-13T11:16:16.424Z,8.3
2022-11-13T11:19:16.418Z,8.4
2022-11-13T11:22:16.416Z,8.4
2022-11-13T11:25:16.418Z,8.4
2022-11-13T11:28:16.425Z,8.5
2022-11-13T11:31:16.413Z,8.5
2022-11-13T11:34:16.410Z,8.6
2022-11-13T11:37:16.413Z,8.6
2022-11-13T11:40:16.405Z,8.6
2022-11-13T11:43:16.409Z,8.7
2022-11-13T11:46:16.407Z,8.7
2022-11-13T11:49:16.412Z,8.7
2022-11-13T11:52:16.411Z,8.7
2022-11-13T11:55:16.408Z,8.7
2022-11-13T11:58:16.402Z,8.8
2022-11-13T12:01:16.403Z,8.8
2022-11-13T12:04:16.409Z,8.8
2022-11-13T12:07:16.462Z,8.9
2022-11-13T12:10:16.400Z,8.9
2022-11-13T12:13:16.403Z,8.9
2022-11-13T12:16:18.833Z,9
2022-11-13T12:19:16.403Z,9
2022-11-13T12:22:16.398Z,9.1
2022-11-13T12:25:16.401Z,9.1
2022-11-13T12:28:16.395Z,9.1
2022-11-13T12:31:16.394Z,9.2
2022-11-13T12:34:16.398Z,9.2
2022-11-13T12:37:16.400Z,9.3
2022-11-13T12:40:16.389Z,9.3
2022-11-13T12:43:16.392Z,9.4
2022-11-13T12:46:16.394Z,9.4
2022-11-13T12:49:16.389Z,9.5
2022-11-13T12:52:16.395Z,9.5
2022-11-13T12:55:16.389Z,9.5
2022-11-13T12:58:16.386Z,9.5
2022-11-13T13:01:16.409Z,9.6
2022-11-13T13:04:16.382Z,9.6
2022-11-13T13:07:16.424Z,9.6
2022-11-13T13:10:16.391Z,9.6
2022-11-13T13:13:21.094Z,9.6
2022-11-13T13:16:16.378Z,9.6
2022-11-13T13:19:16.381Z,9.6
2022-11-13T13:22:16.375Z,9.6
2022-11-13T13:25:16.377Z,9.7
2022-11-13T13:28:16.380Z,9.7
2022-11-13T13:31:16.374Z,9.7
2022-11-13T13:34:16.380Z,9.7
2022-11-13T13:37:16.370Z,9.7
2022-11-13T13:40:16.380Z,9.8
2022-11-13T13:43:16.380Z,9.8
2022-11-13T13:46:16.379Z,9.8
2022-11-13T13:49:16.373Z,9.8
2022-11-13T13:52:16.373Z,9.9
2022-11-13T13:55:16.383Z,9.9
2022-11-13T13:58:16.382Z,9.9
2022-11-13T14:01:19.172Z,9.9
2022-11-13T14:04:16.381Z,9.9
2022-11-13T14:07:16.389Z,9.9
2022-11-13T14:10:16.369Z,9.9
2022-11-13T14:13:16.372Z,9.9
2022-11-13T14:16:16.367Z,9.9
2022-11-13T14:19:16.369Z,9.9
2022-11-13T14:22:16.373Z,9.9
2022-11-13T14:25:16.438Z,10
2022-11-13T14:28:16.366Z,10
2022-11-13T14:31:16.366Z,10
2022-11-13T14:34:16.362Z,10
2022-11-13T14:37:16.369Z,10
2022-11-13T14:40:16.367Z,10
2022-11-13T14:43:16.368Z,10
2022-11-13T14:46:16.366Z,9.9
2022-11-13T14:49:16.364Z,9.9
2022-11-13T14:55:16.364Z,9.9
2022-11-13T14:58:16.364Z,9.9
2022-11-13T15:01:16.370Z,9.8
2022-11-13T15:04:16.365Z,9.8
2022-11-13T15:07:16.411Z,9.8
2022-11-13T15:10:16.358Z,9.7
2022-11-13T15:13:16.365Z,9.7
2022-11-13T15:19:16.356Z,9.7
2022-11-13T15:22:28.545Z,9.7
2022-11-13T15:25:16.356Z,9.7
2022-11-13T15:28:16.354Z,9.7
2022-11-13T15:31:16.355Z,9.6
2022-11-13T15:34:16.351Z,9.6
2022-11-13T15:37:16.355Z,9.6
2022-11-13T15:40:16.350Z,9.6
2022-11-13T15:43:16.354Z,9.5
2022-11-13T15:46:16.345Z,9.5
2022-11-13T15:49:16.340Z,9.5
2022-11-13T15:52:16.346Z,9.4
2022-11-13T15:55:16.346Z,9.4
2022-11-13T15:58:16.342Z,9.4
2022-11-13T16:01:16.363Z,9.4
2022-11-13T16:04:16.344Z,9.4
2022-11-13T16:07:16.346Z,9.3
2022-11-13T16:10:16.336Z,9.3
2022-11-13T16:13:16.336Z,9.3
2022-11-13T16:19:16.333Z,9.2
2022-11-13T16:22:16.371Z,9.2
2022-11-13T16:25:16.463Z,9.1
2022-11-13T16:28:16.363Z,9.1
2022-11-13T16:31:16.361Z,9
2022-11-13T16:34:16.350Z,9
2022-11-13T16:37:16.359Z,9
2022-11-13T16:40:16.361Z,9
2022-11-13T16:43:16.354Z,8.9
2022-11-13T16:46:16.363Z,8.9
2022-11-13T16:49:16.349Z,8.9
2022-11-13T16:52:16.352Z,8.8
2022-11-13T16:55:16.348Z,8.8
2022-11-13T16:58:16.346Z,8.7
2022-11-13T17:01:16.443Z,8.7
2022-11-13T17:04:16.357Z,8.7
2022-11-13T17:07:16.410Z,8.7
2022-11-13T17:10:30.637Z,8.6
2022-11-13T17:13:16.336Z,8.6
2022-11-13T17:16:16.349Z,8.5
2022-11-13T17:19:16.347Z,8.5
2022-11-13T17:22:16.335Z,8.5
2022-11-13T17:25:16.339Z,8.4
2022-11-13T17:28:16.332Z,8.4
2022-11-13T17:31:16.344Z,8.4
2022-11-13T17:34:16.328Z,8.4
2022-11-13T17:37:16.338Z,8.4
2022-11-13T17:40:16.329Z,8.3
2022-11-13T17:43:16.323Z,8.3
2022-11-13T17:46:16.322Z,8.3
2022-11-13T17:49:16.328Z,8.3
2022-11-13T17:52:16.320Z,8.2
2022-11-13T17:55:16.322Z,8.2
2022-11-13T17:58:16.321Z,8.2
2022-11-13T18:04:16.319Z,8.1
2022-11-13T18:07:16.362Z,8.1
2022-11-13T18:10:16.310Z,8.1
2022-11-13T18:13:16.313Z,8.1
2022-11-13T18:16:16.310Z,8.1
2022-11-13T18:19:16.315Z,8.1
2022-11-13T18:22:16.310Z,8.1
2022-11-13T18:25:16.309Z,8
2022-11-13T18:28:16.307Z,8
2022-11-13T18:31:16.303Z,8
2022-11-13T18:34:16.304Z,8
2022-11-13T18:37:16.304Z,8
2022-11-13T18:40:16.298Z,8
2022-11-13T18:43:16.305Z,7.9
2022-11-13T18:46:16.296Z,7.9
2022-11-13T18:49:16.298Z,7.9
2022-11-13T18:52:16.304Z,7.9
2022-11-13T18:55:16.291Z,7.9
2022-11-13T18:58:16.294Z,7.9
2022-11-13T19:01:21.752Z,7.9
2022-11-13T19:04:22.634Z,7.8
2022-11-13T19:07:16.307Z,7.8
2022-11-13T19:10:16.303Z,7.8
2022-11-13T19:13:16.289Z,7.8
2022-11-13T19:16:16.290Z,7.8
2022-11-13T19:19:16.286Z,7.8
2022-11-13T19:22:16.289Z,7.8
2022-11-13T19:25:16.283Z,7.8
2022-11-13T19:28:16.285Z,7.8
2022-11-13T19:31:16.282Z,7.8
2022-11-13T19:34:16.274Z,7.7
2022-11-13T19:37:19.023Z,7.7
2022-11-13T19:40:16.327Z,7.7
2022-11-13T19:43:16.283Z,7.7
2022-11-13T19:49:16.271Z,7.8
2022-11-13T19:52:16.288Z,7.8
2022-11-13T19:55:16.270Z,7.8
2022-11-13T19:58:16.282Z,7.8
2022-11-13T20:01:16.348Z,7.8
2022-11-13T20:04:16.279Z,7.8
2022-11-13T20:07:16.347Z,7.8
2022-11-13T20:10:16.265Z,7.8
2022-11-13T20:13:16.268Z,7.8
2022-11-13T20:16:16.269Z,7.8
2022-11-13T20:19:16.262Z,7.8
2022-11-13T20:22:16.265Z,7.8
2022-11-13T20:25:16.259Z,7.8
2022-11-13T20:28:16.268Z,7.8
2022-11-13T20:31:16.319Z,7.8
2022-11-13T20:34:16.261Z,7.7
2022-11-13T20:37:16.262Z,7.7
2022-11-13T20:40:16.261Z,7.7
2022-11-13T20:43:16.259Z,7.7
2022-11-13T20:46:16.259Z,7.7
2022-11-13T20:49:16.258Z,7.7
2022-11-13T20:52:16.255Z,7.6
2022-11-13T20:55:16.255Z,7.6
2022-11-13T20:58:16.255Z,7.6
2022-11-13T21:01:16.304Z,7.6
2022-11-13T21:04:16.252Z,7.6
2022-11-13T21:07:16.342Z,7.6
2022-11-13T21:10:16.254Z,7.6
2022-11-13T21:13:16.260Z,7.6
2022-11-13T21:16:16.251Z,7.5
2022-11-13T21:19:16.252Z,7.5
2022-11-13T21:22:16.253Z,7.5
2022-11-13T21:25:16.253Z,7.5
2022-11-13T21:28:19.591Z,7.5
2022-11-13T21:31:16.250Z,7.5
2022-11-13T21:34:16.256Z,7.5
2022-11-13T21:37:16.249Z,7.5
2022-11-13T21:40:16.255Z,7.5
2022-11-13T21:43:16.242Z,7.5
2022-11-13T21:46:16.255Z,7.5
2022-11-13T21:49:16.247Z,7.5
2022-11-13T21:52:16.246Z,7.5
2022-11-13T21:55:16.246Z,7.5
2022-11-13T21:58:16.243Z,7.5
2022-11-13T22:01:16.246Z,7.5
2022-11-13T22:04:16.241Z,7.5
2022-11-13T22:07:16.328Z,7.4
2022-11-13T22:10:16.248Z,7.4
2022-11-13T22:16:16.241Z,7.4
2022-11-13T22:19:16.238Z,7.4
2022-11-13T22:22:16.238Z,7.4
2022-11-13T22:25:16.239Z,7.4
2022-11-13T22:28:16.238Z,7.4
2022-11-13T22:31:16.236Z,7.3
2022-11-13T22:34:16.233Z,7.3
2022-11-13T22:37:16.231Z,7.3
2022-11-13T22:40:16.235Z,7.3
2022-11-13T22:43:16.227Z,7.3
2022-11-13T22:46:16.232Z,7.3
2022-11-13T22:49:16.224Z,7.3
2022-11-13T22:52:16.230Z,7.3
2022-11-13T22:55:16.223Z,7.3
2022-11-13T22:58:16.225Z,7.3
2022-11-13T23:01:16.227Z,7.3
2022-11-13T23:04:16.232Z,7.3
2022-11-13T23:07:16.249Z,7.3
2022-11-13T23:10:16.223Z,7.3
2022-11-13T23:13:16.224Z,7.3
2022-11-13T23:16:16.219Z,7.3
2022-11-13T23:19:16.218Z,7.3
2022-11-13T23:22:16.234Z,7.2
2022-11-13T23:25:16.212Z,7.2
2022-11-13T23:28:16.218Z,7.2
2022-11-13T23:31:16.210Z,7.2
2022-11-13T23:34:22.870Z,7.2
2022-11-13T23:37:16.210Z,7.2
2022-11-13T23:40:16.208Z,7.2
2022-11-13T23:43:16.211Z,7.2
2022-11-13T23:46:16.209Z,7.2
2022-11-13T23:49:16.210Z,7.2
2022-11-13T23:52:16.210Z,7.1
2022-11-13T23:55:16.208Z,7.1
2022-11-13T23:58:16.210Z,7.1
